sensor_id;sensor_type;location;lat;lon;timestamp;temperature;humidity
26049;DHT22;13822;51.568;5.086;2023-06-26T06:03:44;20.50;99.90
26049;DHT22;13822;51.568;5.086;2023-06-26T06:37:11;21.00;99.90
26049;DHT22;13822;51.568;5.086;2023-06-26T06:42:27;21.30;99.90
26049;DHT22;13822;51.568;5.086;2023-06-26T06:47:47;21.40;99.90
26049;DHT22;13822;51.568;5.086;2023-06-26T06:53:12;21.50;99.90
26049;DHT22;13822;51.568;5.086;2023-06-26T06:58:19;21.40;99.90
26049;DHT22;13822;51.568;5.086;2023-06-26T07:03:42;21.40;99.90
26049;DHT22;13822;51.568;5.086;2023-06-26T07:09:03;21.30;99.90
26049;DHT22;13822;51.568;5.086;2023-06-26T07:14:55;21.30;99.90
26049;DHT22;13822;51.568;5.086;2023-06-26T07:20:14;21.30;99.90
26049;DHT22;13822;51.568;5.086;2023-06-26T07:25:36;21.40;99.90
26049;DHT22;13822;51.568;5.086;2023-06-26T07:30:58;21.50;99.90
26049;DHT22;13822;51.568;5.086;2023-06-26T07:36:32;21.50;99.90
26049;DHT22;13822;51.568;5.086;2023-06-26T07:41:46;21.50;99.90
26049;DHT22;13822;51.568;5.086;2023-06-26T07:46:48;21.50;99.90
26049;DHT22;13822;51.568;5.086;2023-06-26T07:51:52;21.50;99.90
26049;DHT22;13822;51.568;5.086;2023-06-26T07:56:59;21.70;99.90
26049;DHT22;13822;51.568;5.086;2023-06-26T08:02:05;21.80;99.90
26049;DHT22;13822;51.568;5.086;2023-06-26T08:07:16;21.90;99.90
26049;DHT22;13822;51.568;5.086;2023-06-26T08:12:20;21.90;99.90
26049;DHT22;13822;51.568;5.086;2023-06-26T08:17:22;22.00;99.90
26049;DHT22;13822;51.568;5.086;2023-06-26T08:22:24;22.00;99.90
26049;DHT22;13822;51.568;5.086;2023-06-26T08:27:30;22.20;99.90
26049;DHT22;13822;51.568;5.086;2023-06-26T08:32:43;22.20;99.90
26049;DHT22;13822;51.568;5.086;2023-06-26T08:37:45;22.10;99.90
26049;DHT22;13822;51.568;5.086;2023-06-26T08:42:47;22.20;99.90
26049;DHT22;13822;51.568;5.086;2023-06-26T08:47:54;22.30;99.90
26049;DHT22;13822;51.568;5.086;2023-06-26T08:53:41;22.50;99.90
26049;DHT22;13822;51.568;5.086;2023-06-26T08:58:25;22.60;99.90
26049;DHT22;13822;51.568;5.086;2023-06-26T09:03:27;22.50;99.90
26049;DHT22;13822;51.568;5.086;2023-06-26T09:08:33;22.60;99.90
26049;DHT22;13822;51.568;5.086;2023-06-26T09:13:35;22.60;99.90
26049;DHT22;13822;51.568;5.086;2023-06-26T09:18:44;22.80;99.60
26049;DHT22;13822;51.568;5.086;2023-06-26T09:23:47;22.80;96.80
26049;DHT22;13822;51.568;5.086;2023-06-26T09:28:49;22.80;95.70
26049;DHT22;13822;51.568;5.086;2023-06-26T09:33:55;22.90;90.00
26049;DHT22;13822;51.568;5.086;2023-06-26T09:39:05;22.90;87.50
26049;DHT22;13822;51.568;5.086;2023-06-26T09:44:14;23.10;84.00
26049;DHT22;13822;51.568;5.086;2023-06-26T09:49:16;23.20;84.10
26049;DHT22;13822;51.568;5.086;2023-06-26T09:54:24;23.30;79.90
26049;DHT22;13822;51.568;5.086;2023-06-26T09:59:31;23.40;78.10
26049;DHT22;13822;51.568;5.086;2023-06-26T10:04:34;23.60;78.50
26049;DHT22;13822;51.568;5.086;2023-06-26T10:09:41;23.80;77.10
26049;DHT22;13822;51.568;5.086;2023-06-26T10:14:44;23.90;72.50
26049;DHT22;13822;51.568;5.086;2023-06-26T10:20:01;24.10;70.00
26049;DHT22;13822;51.568;5.086;2023-06-26T10:25:09;24.30;65.40
26049;DHT22;13822;51.568;5.086;2023-06-26T10:30:14;24.40;70.90
26049;DHT22;13822;51.568;5.086;2023-06-26T10:35:18;24.50;66.20
26049;DHT22;13822;51.568;5.086;2023-06-26T10:40:39;24.50;66.20
26049;DHT22;13822;51.568;5.086;2023-06-26T10:45:43;24.50;65.80
26049;DHT22;13822;51.568;5.086;2023-06-26T10:50:47;24.60;66.20
26049;DHT22;13822;51.568;5.086;2023-06-26T10:55:54;24.50;66.50
26049;DHT22;13822;51.568;5.086;2023-06-26T11:06:14;24.40;64.70
26049;DHT22;13822;51.568;5.086;2023-06-26T11:11:19;24.60;58.10
26049;DHT22;13822;51.568;5.086;2023-06-26T11:16:22;24.90;59.50
26049;DHT22;13822;51.568;5.086;2023-06-26T11:21:27;25.20;57.60
26049;DHT22;13822;51.568;5.086;2023-06-26T11:26:29;25.30;55.60
26049;DHT22;13822;51.568;5.086;2023-06-26T11:31:35;25.10;51.00
26049;DHT22;13822;51.568;5.086;2023-06-26T11:36:39;25.30;58.10
26049;DHT22;13822;51.568;5.086;2023-06-26T11:41:44;25.10;59.10
26049;DHT22;13822;51.568;5.086;2023-06-26T11:46:46;25.00;60.90
26049;DHT22;13822;51.568;5.086;2023-06-26T11:51:51;25.40;58.70
26049;DHT22;13822;51.568;5.086;2023-06-26T11:56:58;25.60;57.50
26049;DHT22;13822;51.568;5.086;2023-06-26T12:02:09;25.90;54.20
26049;DHT22;13822;51.568;5.086;2023-06-26T12:07:20;26.20;54.40
26049;DHT22;13822;51.568;5.086;2023-06-26T12:12:24;26.60;49.30
26049;DHT22;13822;51.568;5.086;2023-06-26T12:17:27;26.50;49.90
26049;DHT22;13822;51.568;5.086;2023-06-26T12:22:35;26.50;51.10
26049;DHT22;13822;51.568;5.086;2023-06-26T12:27:44;26.60;52.40
26049;DHT22;13822;51.568;5.086;2023-06-26T12:32:49;26.40;50.40
26049;DHT22;13822;51.568;5.086;2023-06-26T12:37:52;26.50;48.70
26049;DHT22;13822;51.568;5.086;2023-06-26T12:43:04;26.30;48.50
26049;DHT22;13822;51.568;5.086;2023-06-26T12:49:12;26.40;51.50
26049;DHT22;13822;51.568;5.086;2023-06-26T12:54:35;26.60;48.70
26049;DHT22;13822;51.568;5.086;2023-06-26T12:59:38;26.40;47.30
26049;DHT22;13822;51.568;5.086;2023-06-26T13:04:40;26.00;50.10
26049;DHT22;13822;51.568;5.086;2023-06-26T13:09:42;25.60;50.90
26049;DHT22;13822;51.568;5.086;2023-06-26T13:14:47;25.60;51.40
26049;DHT22;13822;51.568;5.086;2023-06-26T13:19:58;25.70;50.80
26049;DHT22;13822;51.568;5.086;2023-06-26T13:25:00;25.50;52.90
26049;DHT22;13822;51.568;5.086;2023-06-26T13:30:03;25.70;53.40
26049;DHT22;13822;51.568;5.086;2023-06-26T13:35:09;26.00;52.90
26049;DHT22;13822;51.568;5.086;2023-06-26T13:53:05;26.50;47.60
26049;DHT22;13822;51.568;5.086;2023-06-26T13:58:07;26.20;48.70
26049;DHT22;13822;51.568;5.086;2023-06-26T14:03:09;26.10;48.30
26049;DHT22;13822;51.568;5.086;2023-06-26T14:08:12;25.80;46.00
26049;DHT22;13822;51.568;5.086;2023-06-26T14:13:14;25.80;48.10
26049;DHT22;13822;51.568;5.086;2023-06-26T14:18:17;26.20;47.90
26049;DHT22;13822;51.568;5.086;2023-06-26T14:23:20;26.00;48.20
26049;DHT22;13822;51.568;5.086;2023-06-26T14:28:22;25.90;46.90
26049;DHT22;13822;51.568;5.086;2023-06-26T14:33:27;25.80;49.10
26049;DHT22;13822;51.568;5.086;2023-06-26T14:39:41;25.90;47.50
26049;DHT22;13822;51.568;5.086;2023-06-26T14:44:52;25.50;46.90
26049;DHT22;13822;51.568;5.086;2023-06-26T15:04:29;25.80;45.70
26049;DHT22;13822;51.568;5.086;2023-06-26T15:50:32;25.00;41.80
26049;DHT22;13822;51.568;5.086;2023-06-26T16:01:44;24.90;42.80
26049;DHT22;13822;51.568;5.086;2023-06-26T17:31:18;24.90;39.40
26049;DHT22;13822;51.568;5.086;2023-06-26T17:37:25;24.70;40.90
26049;DHT22;13822;51.568;5.086;2023-06-26T17:42:40;24.60;41.60
26049;DHT22;13822;51.568;5.086;2023-06-26T17:48:50;24.60;41.00
26049;DHT22;13822;51.568;5.086;2023-06-26T17:55:32;24.40;41.10
26049;DHT22;13822;51.568;5.086;2023-06-26T18:07:18;24.00;42.80
26049;DHT22;13822;51.568;5.086;2023-06-26T18:12:44;23.80;43.10
26049;DHT22;13822;51.568;5.086;2023-06-26T18:31:05;23.00;45.40
26049;DHT22;13822;51.568;5.086;2023-06-26T18:36:15;22.60;45.80
26049;DHT22;13822;51.568;5.086;2023-06-26T18:41:19;22.30;47.70
26049;DHT22;13822;51.568;5.086;2023-06-26T18:47:30;22.20;48.90
26049;DHT22;13822;51.568;5.086;2023-06-26T18:52:37;22.00;48.60
26049;DHT22;13822;51.568;5.086;2023-06-26T18:57:48;21.80;51.00
26049;DHT22;13822;51.568;5.086;2023-06-26T19:02:55;21.60;53.10
26049;DHT22;13822;51.568;5.086;2023-06-26T19:08:19;21.50;53.20
26049;DHT22;13822;51.568;5.086;2023-06-26T19:13:21;21.60;54.00
26049;DHT22;13822;51.568;5.086;2023-06-26T19:18:23;21.50;52.90
26049;DHT22;13822;51.568;5.086;2023-06-26T19:23:29;21.30;56.40
26049;DHT22;13822;51.568;5.086;2023-06-26T19:29:21;21.30;56.60
26049;DHT22;13822;51.568;5.086;2023-06-26T19:34:27;21.20;58.00
26049;DHT22;13822;51.568;5.086;2023-06-26T19:39:32;21.00;57.50
26049;DHT22;13822;51.568;5.086;2023-06-26T19:44:40;21.00;57.80
26049;DHT22;13822;51.568;5.086;2023-06-26T19:49:47;20.90;59.90
26049;DHT22;13822;51.568;5.086;2023-06-26T19:55:02;20.90;59.50
26049;DHT22;13822;51.568;5.086;2023-06-26T20:00:18;20.80;60.40
26049;DHT22;13822;51.568;5.086;2023-06-26T20:06:27;20.80;58.70
26049;DHT22;13822;51.568;5.086;2023-06-26T20:11:33;20.70;62.20
26049;DHT22;13822;51.568;5.086;2023-06-26T20:17:24;20.60;63.30
